Time;durP1;ratioP1;P1;durP2;ratioP2;P2;SDS_P1;SDS_P2;PMS_P1;PMS_P2;Temp;Humidity;BMP_temperature;BMP_pressure;BME280_temperature;BME280_humidity;BME280_pressure;Samples;Min_cycle;Max_cycle;Signal;HPM_P1;HPM_P2
2023/06/03 00:00:48;;;;;;;8.47;5.30;;;;;;;;;;5081772;28;20225;-62
2023/06/03 00:03:16;;;;;;;6.27;5.17;;;;;;;;;;5087367;28;20233;-61
2023/06/03 00:05:43;;;;;;;9.30;6.93;;;;;;;;;;5088351;28;20236;-61
2023/06/03 00:08:11;;;;;;;11.13;6.80;;;;;;;;;;5082201;28;20214;-63
2023/06/03 00:10:38;;;;;;;7.80;5.53;;;;;;;;;;5081423;28;20220;-63
2023/06/03 00:13:05;;;;;;;7.63;5.27;;;;;;;;;;5080854;28;20284;-64
2023/06/03 00:15:33;;;;;;;6.70;5.37;;;;;;;;;;5074292;28;20209;-61
2023/06/03 00:18:01;;;;;;;7.53;5.13;;;;;;;;;;5084008;28;20319;-63
2023/06/03 00:20:29;;;;;;;7.07;5.27;;;;;;;;;;5090636;28;20694;-61
2023/06/03 00:22:56;;;;;;;9.87;6.80;;;;;;;;;;5085362;28;20204;-62
2023/06/03 00:25:24;;;;;;;9.87;6.40;;;;;;;;;;5084168;28;20223;-62
2023/06/03 00:27:51;;;;;;;8.90;5.97;;;;;;;;;;5085087;28;20680;-62
2023/06/03 00:30:18;;;;;;;8.57;5.93;;;;;;;;;;5074777;28;20898;-62
2023/06/03 00:32:45;;;;;;;11.83;5.40;;;;;;;;;;5082756;28;20197;-62
2023/06/03 00:35:13;;;;;;;8.27;5.37;;;;;;;;;;5088531;28;20666;-62
2023/06/03 00:37:40;;;;;;;11.23;5.43;;;;;;;;;;5069608;28;20220;-60
2023/06/03 00:40:08;;;;;;;10.40;5.50;;;;;;;;;;5082840;28;20193;-62
2023/06/03 00:42:35;;;;;;;10.00;5.53;;;;;;;;;;5082430;28;20207;-62
2023/06/03 00:45:03;;;;;;;5.95;5.00;;;;;;;;;;5081695;28;20197;-62
2023/06/03 00:47:30;;;;;;;7.80;5.47;;;;;;;;;;5069059;28;20550;-62
2023/06/03 00:49:57;;;;;;;9.87;5.50;;;;;;;;;;5086535;28;20213;-60
2023/06/03 00:52:26;;;;;;;9.80;6.07;;;;;;;;;;5089508;28;20223;-63
2023/06/03 00:54:54;;;;;;;8.80;5.27;;;;;;;;;;5083885;28;20224;-61
2023/06/03 00:57:22;;;;;;;7.77;5.63;;;;;;;;;;5078074;28;20580;-62
2023/06/03 00:59:50;;;;;;;9.83;5.20;;;;;;;;;;5065360;28;20205;-63
2023/06/03 01:02:19;;;;;;;11.73;5.87;;;;;;;;;;5082406;28;20885;-61
2023/06/03 01:04:47;;;;;;;11.40;6.10;;;;;;;;;;5085523;28;20205;-62
2023/06/03 01:07:15;;;;;;;8.73;5.40;;;;;;;;;;5089380;28;20193;-63
2023/06/03 01:09:48;;;;;;;12.03;5.83;;;;;;;;;;5083646;28;20673;-62
2023/06/03 01:12:29;;;;;;;10.53;5.30;;;;;;;;;;5078236;28;20248;-64
2023/06/03 01:15:02;;;;;;;9.33;5.70;;;;;;;;;;5078286;28;20249;-61
2023/06/03 01:17:31;;;;;;;9.33;5.57;;;;;;;;;;5075246;28;20202;-62
2023/06/03 01:19:59;;;;;;;10.90;6.10;;;;;;;;;;5077484;28;20281;-61
2023/06/03 01:22:28;;;;;;;7.13;5.43;;;;;;;;;;5080366;28;20221;-62
2023/06/03 01:25:06;;;;;;;10.13;5.33;;;;;;;;;;5078444;28;20192;-62
2023/06/03 01:27:33;;;;;;;7.73;5.20;;;;;;;;;;5082038;28;20201;-63
2023/06/03 01:30:01;;;;;;;8.63;5.50;;;;;;;;;;5059202;28;20201;-62
2023/06/03 01:32:31;;;;;;;7.40;5.63;;;;;;;;;;5065756;28;20300;-61
2023/06/03 01:34:59;;;;;;;6.03;4.77;;;;;;;;;;5087775;28;20813;-62
2023/06/03 01:37:26;;;;;;;9.93;5.50;;;;;;;;;;5088764;28;20201;-62
2023/06/03 01:39:55;;;;;;;9.73;5.57;;;;;;;;;;5083996;28;20221;-62
2023/06/03 01:42:22;;;;;;;8.23;5.60;;;;;;;;;;5087049;28;20704;-64
2023/06/03 01:44:50;;;;;;;9.70;5.07;;;;;;;;;;5080930;28;20780;-62
2023/06/03 01:47:17;;;;;;;9.13;5.77;;;;;;;;;;5075014;28;20201;-62
2023/06/03 01:49:45;;;;;;;8.40;5.40;;;;;;;;;;5061458;28;20578;-61
2023/06/03 01:52:12;;;;;;;10.53;5.47;;;;;;;;;;5083527;28;20236;-62
2023/06/03 01:54:40;;;;;;;8.50;5.63;;;;;;;;;;5061531;28;20198;-61
2023/06/03 01:57:08;;;;;;;12.60;6.27;;;;;;;;;;5081250;28;20201;-62
2023/06/03 01:59:35;;;;;;;9.87;5.27;;;;;;;;;;5080862;28;20260;-62
2023/06/03 02:02:02;;;;;;;10.73;6.63;;;;;;;;;;5080399;28;20229;-61
2023/06/03 02:04:31;;;;;;;12.90;5.50;;;;;;;;;;5082853;28;20193;-64
2023/06/03 02:07:00;;;;;;;11.30;6.17;;;;;;;;;;5077945;28;20196;-61
2023/06/03 02:09:28;;;;;;;10.47;5.43;;;;;;;;;;5086578;28;20201;-62
2023/06/03 02:11:59;;;;;;;9.67;5.73;;;;;;;;;;5092946;28;20250;-61
2023/06/03 02:14:27;;;;;;;7.77;5.07;;;;;;;;;;5079171;28;20809;-65
2023/06/03 02:16:59;;;;;;;10.40;5.90;;;;;;;;;;5080319;28;20224;-62
2023/06/03 02:19:28;;;;;;;9.37;5.37;;;;;;;;;;5084989;28;20230;-61
2023/06/03 02:21:57;;;;;;;7.83;4.90;;;;;;;;;;5060906;28;20251;-63
2023/06/03 02:24:28;;;;;;;8.77;4.90;;;;;;;;;;5084508;28;20197;-64
2023/06/03 02:27:00;;;;;;;10.17;5.17;;;;;;;;;;5079046;28;20190;-62
2023/06/03 02:29:29;;;;;;;11.87;5.43;;;;;;;;;;5084339;28;20205;-62
2023/06/03 02:31:57;;;;;;;9.30;4.80;;;;;;;;;;5083319;28;20224;-63
2023/06/03 02:34:25;;;;;;;8.93;4.63;;;;;;;;;;5078889;28;20216;-63
2023/06/03 02:36:53;;;;;;;8.90;4.90;;;;;;;;;;5079788;28;20293;-61
2023/06/03 02:39:20;;;;;;;8.93;5.47;;;;;;;;;;5082376;28;20270;-60
2023/06/03 02:41:48;;;;;;;9.33;6.33;;;;;;;;;;5086163;28;20270;-64
2023/06/03 02:44:16;;;;;;;6.87;5.60;;;;;;;;;;5079210;28;20201;-61
2023/06/03 02:46:44;;;;;;;7.43;5.23;;;;;;;;;;5084340;28;20205;-61
2023/06/03 02:49:13;;;;;;;10.50;5.40;;;;;;;;;;5080134;28;20209;-60
2023/06/03 02:51:40;;;;;;;11.93;5.33;;;;;;;;;;5084812;28;20216;-61
2023/06/03 02:54:08;;;;;;;7.63;4.70;;;;;;;;;;5046408;28;20609;-61
2023/06/03 02:56:35;;;;;;;8.93;5.40;;;;;;;;;;5078091;28;20201;-63
2023/06/03 02:59:03;;;;;;;6.87;5.30;;;;;;;;;;5080040;28;20580;-60
2023/06/03 03:01:30;;;;;;;8.40;5.10;;;;;;;;;;5056739;28;21226;-61
2023/06/03 03:03:58;;;;;;;9.37;5.00;;;;;;;;;;5080334;28;20233;-63
2023/06/03 03:06:25;;;;;;;7.03;4.70;;;;;;;;;;5082605;28;20748;-61
2023/06/03 03:08:53;;;;;;;9.10;5.33;;;;;;;;;;5080632;28;20208;-60
2023/06/03 03:11:24;;;;;;;7.93;5.60;;;;;;;;;;5080835;28;21169;-64
2023/06/03 03:13:51;;;;;;;7.93;5.40;;;;;;;;;;5084401;28;20291;-63
2023/06/03 03:16:19;;;;;;;8.27;5.50;;;;;;;;;;5073821;28;20200;-63
2023/06/03 03:18:46;;;;;;;9.23;5.43;;;;;;;;;;5071306;28;20237;-62
2023/06/03 03:21:13;;;;;;;12.07;5.83;;;;;;;;;;5076434;28;20217;-63
2023/06/03 03:23:40;;;;;;;7.80;5.47;;;;;;;;;;5077467;28;20664;-62
2023/06/03 03:26:08;;;;;;;9.63;5.20;;;;;;;;;;5077880;28;20205;-62
2023/06/03 03:28:36;;;;;;;7.60;5.70;;;;;;;;;;5070888;28;20201;-63
2023/06/03 03:31:08;;;;;;;9.73;5.80;;;;;;;;;;5070458;28;20326;-61
2023/06/03 03:33:35;;;;;;;8.67;5.40;;;;;;;;;;5072221;28;20217;-62
2023/06/03 03:36:10;;;;;;;11.17;5.33;;;;;;;;;;5082529;28;20839;-61
2023/06/03 03:38:38;;;;;;;6.60;4.90;;;;;;;;;;5060939;28;20241;-61
2023/06/03 03:41:07;;;;;;;11.90;5.83;;;;;;;;;;5074530;28;20217;-60
2023/06/03 03:43:34;;;;;;;14.00;5.03;;;;;;;;;;5078511;28;20196;-65
2023/06/03 03:46:02;;;;;;;11.70;5.70;;;;;;;;;;5074799;28;20255;-63
2023/06/03 03:48:30;;;;;;;7.93;4.97;;;;;;;;;;5079365;28;20237;-63
2023/06/03 03:50:58;;;;;;;9.23;5.10;;;;;;;;;;5078060;28;20832;-61
2023/06/03 03:53:30;;;;;;;8.23;5.00;;;;;;;;;;5086755;28;20209;-63
2023/06/03 03:55:58;;;;;;;6.50;5.13;;;;;;;;;;5089331;28;20208;-63
2023/06/03 03:58:28;;;;;;;10.40;5.20;;;;;;;;;;5083672;28;20295;-62
2023/06/03 04:01:00;;;;;;;7.87;5.10;;;;;;;;;;5073467;28;20282;-61
2023/06/03 04:03:30;;;;;;;7.53;5.00;;;;;;;;;;5063108;28;20205;-60
2023/06/03 04:05:57;;;;;;;9.77;5.37;;;;;;;;;;5076857;28;20205;-61
2023/06/03 04:08:39;;;;;;;9.47;5.10;;;;;;;;;;5058497;28;20794;-62
2023/06/03 04:11:12;;;;;;;9.33;5.40;;;;;;;;;;5079795;28;20224;-61
2023/06/03 04:13:40;;;;;;;11.33;5.70;;;;;;;;;;5074448;28;20265;-63
2023/06/03 04:16:11;;;;;;;20.50;10.57;;;;;;;;;;5077923;28;20201;-61
2023/06/03 04:18:40;;;;;;;8.27;4.63;;;;;;;;;;5067644;28;20311;-61
2023/06/03 04:21:14;;;;;;;29.43;14.90;;;;;;;;;;5076852;28;20224;-62
2023/06/03 04:23:42;;;;;;;29.33;13.90;;;;;;;;;;5093771;28;20225;-61
2023/06/03 04:26:09;;;;;;;22.83;10.97;;;;;;;;;;5079993;28;20210;-61
2023/06/03 04:28:40;;;;;;;19.70;9.73;;;;;;;;;;5076546;28;20201;-61
2023/06/03 04:31:07;;;;;;;17.23;8.33;;;;;;;;;;5072980;28;20631;-62
2023/06/03 04:33:34;;;;;;;15.53;7.77;;;;;;;;;;5067859;28;20265;-62
2023/06/03 04:36:02;;;;;;;7.20;4.83;;;;;;;;;;5075739;28;20205;-63
2023/06/03 04:38:29;;;;;;;8.23;5.17;;;;;;;;;;5077234;28;20259;-62
2023/06/03 04:40:56;;;;;;;9.17;4.87;;;;;;;;;;5070906;28;20219;-60
2023/06/03 04:43:26;;;;;;;8.07;5.03;;;;;;;;;;5080092;28;20209;-61
2023/06/03 04:45:57;;;;;;;9.70;5.03;;;;;;;;;;5060524;28;20291;-61
2023/06/03 04:48:26;;;;;;;8.40;5.07;;;;;;;;;;5084909;28;20650;-63
2023/06/03 04:50:54;;;;;;;8.23;5.30;;;;;;;;;;5081133;28;20217;-62
2023/06/03 04:53:25;;;;;;;11.30;5.73;;;;;;;;;;5075930;28;20232;-63
2023/06/03 04:55:53;;;;;;;10.80;5.93;;;;;;;;;;5053817;28;20202;-62
2023/06/03 04:58:20;;;;;;;10.00;5.73;;;;;;;;;;5085073;28;20601;-61
2023/06/03 05:00:48;;;;;;;12.07;5.93;;;;;;;;;;5085950;28;20247;-63
2023/06/03 05:03:17;;;;;;;10.27;5.70;;;;;;;;;;5079857;28;20204;-60
2023/06/03 05:05:45;;;;;;;8.80;5.83;;;;;;;;;;5057399;28;20208;-62
2023/06/03 05:08:12;;;;;;;8.00;4.67;;;;;;;;;;5071358;28;20209;-61
2023/06/03 05:10:40;;;;;;;8.77;5.00;;;;;;;;;;5064948;28;20710;-61
2023/06/03 05:13:07;;;;;;;10.00;5.37;;;;;;;;;;5079047;28;21000;-61
2023/06/03 05:15:35;;;;;;;10.07;5.53;;;;;;;;;;5064862;28;20204;-61
2023/06/03 05:18:04;;;;;;;8.80;5.00;;;;;;;;;;5074598;28;20571;-62
2023/06/03 05:20:32;;;;;;;10.47;5.33;;;;;;;;;;5075145;28;20303;-62
2023/06/03 05:22:59;;;;;;;9.70;4.80;;;;;;;;;;5063830;28;20202;-63
2023/06/03 05:25:27;;;;;;;8.90;4.60;;;;;;;;;;5083921;28;20646;-64
2023/06/03 05:27:55;;;;;;;11.40;4.97;;;;;;;;;;5066724;28;20727;-63
2023/06/03 05:30:31;;;;;;;5.75;4.18;;;;;;;;;;5073239;28;20224;-62
2023/06/03 05:32:58;;;;;;;6.28;4.00;;;;;;;;;;5083789;28;20205;-63
2023/06/03 05:35:25;;;;;;;9.73;3.97;;;;;;;;;;5079138;28;20205;-62
2023/06/03 05:37:53;;;;;;;7.68;4.22;;;;;;;;;;5087311;28;20204;-63
2023/06/03 05:40:20;;;;;;;6.65;4.30;;;;;;;;;;5077631;28;20740;-61
2023/06/03 05:42:47;;;;;;;6.72;3.85;;;;;;;;;;5085679;28;20200;-62
2023/06/03 05:45:15;;;;;;;8.48;4.57;;;;;;;;;;5081949;28;20266;-62
2023/06/03 05:47:42;;;;;;;9.35;4.20;;;;;;;;;;5087865;28;20201;-62
2023/06/03 05:50:10;;;;;;;7.55;3.78;;;;;;;;;;5060049;28;20371;-64
2023/06/03 05:52:37;;;;;;;10.68;4.47;;;;;;;;;;5082904;28;20204;-61
2023/06/03 05:55:05;;;;;;;6.90;4.20;;;;;;;;;;5079045;28;20275;-62
2023/06/03 05:57:32;;;;;;;6.85;3.60;;;;;;;;;;5085574;28;20200;-62
2023/06/03 05:59:59;;;;;;;5.90;3.88;;;;;;;;;;5090366;28;20258;-61
2023/06/03 06:02:26;;;;;;;7.90;3.35;;;;;;;;;;5074350;28;20216;-63
2023/06/03 06:04:54;;;;;;;6.30;3.85;;;;;;;;;;5084679;28;20263;-62
2023/06/03 06:07:21;;;;;;;8.50;3.90;;;;;;;;;;5086977;28;20208;-62
2023/06/03 06:09:48;;;;;;;5.95;3.67;;;;;;;;;;5080166;28;20205;-62
2023/06/03 06:12:16;;;;;;;7.28;3.75;;;;;;;;;;5090250;28;20689;-62
2023/06/03 06:14:44;;;;;;;7.82;4.60;;;;;;;;;;5067107;28;20201;-62
2023/06/03 06:17:16;;;;;;;8.55;4.20;;;;;;;;;;5092060;28;21011;-62
2023/06/03 06:19:44;;;;;;;6.40;4.10;;;;;;;;;;5078722;28;20216;-61
2023/06/03 06:22:11;;;;;;;8.73;4.45;;;;;;;;;;5089940;28;20232;-60
2023/06/03 06:24:39;;;;;;;8.32;5.00;;;;;;;;;;5087558;28;20192;-63
2023/06/03 06:27:06;;;;;;;7.10;4.63;;;;;;;;;;5080633;28;20198;-64
2023/06/03 06:29:34;;;;;;;7.72;4.78;;;;;;;;;;5082382;28;20263;-62
2023/06/03 06:32:03;;;;;;;9.20;4.95;;;;;;;;;;5080279;28;20232;-62
2023/06/03 06:34:34;;;;;;;10.30;4.60;;;;;;;;;;5081379;28;20197;-62
2023/06/03 06:37:01;;;;;;;7.68;4.78;;;;;;;;;;5075784;28;20197;-62
2023/06/03 06:39:32;;;;;;;6.20;4.45;;;;;;;;;;5076753;28;20225;-64
2023/06/03 06:42:17;;;;;;;10.65;5.40;;;;;;;;;;5069468;28;20237;-63
2023/06/03 06:44:48;;;;;;;6.97;4.70;;;;;;;;;;5071557;28;20356;-64
2023/06/03 06:47:25;;;;;;;7.05;4.95;;;;;;;;;;5072826;28;20221;-63
2023/06/03 06:49:55;;;;;;;7.13;4.72;;;;;;;;;;5077028;28;20238;-62
2023/06/03 06:52:23;;;;;;;7.22;5.05;;;;;;;;;;5076495;28;20272;-62
2023/06/03 06:54:50;;;;;;;5.45;4.93;;;;;;;;;;5086646;28;20204;-62
2023/06/03 06:57:20;;;;;;;8.93;5.20;;;;;;;;;;5086110;28;20716;-62
2023/06/03 06:59:47;;;;;;;11.10;5.60;;;;;;;;;;5068239;28;20282;-62
2023/06/03 07:02:16;;;;;;;10.70;5.75;;;;;;;;;;5091857;28;20831;-61
2023/06/03 07:04:44;;;;;;;9.98;5.60;;;;;;;;;;5080948;28;20221;-62
2023/06/03 07:07:13;;;;;;;10.15;5.75;;;;;;;;;;5084205;28;21926;-62
2023/06/03 07:09:41;;;;;;;6.22;4.75;;;;;;;;;;5081208;28;20286;-62
2023/06/03 07:12:09;;;;;;;8.73;5.57;;;;;;;;;;5081341;28;20240;-63
2023/06/03 07:14:37;;;;;;;9.20;5.90;;;;;;;;;;5083010;28;20208;-63
2023/06/03 07:17:06;;;;;;;8.48;5.63;;;;;;;;;;5078171;28;20204;-61
2023/06/03 07:19:37;;;;;;;10.23;5.28;;;;;;;;;;5080485;28;20229;-63
2023/06/03 07:22:05;;;;;;;6.80;5.40;;;;;;;;;;5084787;28;20225;-62
2023/06/03 07:24:36;;;;;;;6.85;5.60;;;;;;;;;;5090835;28;20196;-61
2023/06/03 07:27:07;;;;;;;7.45;5.82;;;;;;;;;;5080744;28;20241;-63
2023/06/03 07:29:39;;;;;;;10.25;5.72;;;;;;;;;;5073892;28;20224;-62
2023/06/03 07:32:07;;;;;;;8.57;5.38;;;;;;;;;;5070279;28;20243;-61
2023/06/03 07:34:36;;;;;;;9.25;5.90;;;;;;;;;;5076902;28;20258;-60
2023/06/03 07:37:08;;;;;;;9.80;5.63;;;;;;;;;;5075209;28;20205;-61
2023/06/03 07:39:35;;;;;;;10.10;5.93;;;;;;;;;;5076241;28;20839;-61
2023/06/03 07:42:02;;;;;;;8.40;5.22;;;;;;;;;;5071486;28;20229;-62
2023/06/03 07:44:36;;;;;;;8.80;5.80;;;;;;;;;;5077578;28;20254;-62
2023/06/03 07:47:03;;;;;;;11.20;5.80;;;;;;;;;;5070118;28;20211;-62
2023/06/03 07:49:31;;;;;;;11.57;5.95;;;;;;;;;;5082865;28;20204;-61
2023/06/03 07:51:58;;;;;;;9.13;5.68;;;;;;;;;;5078190;28;20224;-61
2023/06/03 07:54:28;;;;;;;8.98;5.78;;;;;;;;;;5081923;28;20209;-61
2023/06/03 07:56:58;;;;;;;7.82;5.15;;;;;;;;;;5083354;28;20205;-62
2023/06/03 07:59:26;;;;;;;9.13;5.63;;;;;;;;;;5083714;28;20287;-64
2023/06/03 08:01:53;;;;;;;9.13;5.20;;;;;;;;;;5077228;28;20262;-62
2023/06/03 08:04:21;;;;;;;8.90;5.93;;;;;;;;;;5073351;28;20201;-63
2023/06/03 08:06:52;;;;;;;8.13;4.90;;;;;;;;;;5084359;28;20245;-62
2023/06/03 08:09:25;;;;;;;7.85;5.75;;;;;;;;;;5072084;28;20209;-63
2023/06/03 08:11:52;;;;;;;8.52;5.65;;;;;;;;;;5087382;28;20233;-62
2023/06/03 08:14:21;;;;;;;9.63;5.53;;;;;;;;;;5062526;28;20193;-61
2023/06/03 08:16:49;;;;;;;11.73;6.07;;;;;;;;;;5085337;28;20254;-61
2023/06/03 08:19:17;;;;;;;8.43;5.75;;;;;;;;;;5078169;28;20250;-62
2023/06/03 08:21:45;;;;;;;9.32;5.80;;;;;;;;;;5063602;28;20299;-62
2023/06/03 08:24:13;;;;;;;8.10;5.22;;;;;;;;;;5061194;28;20233;-62
2023/06/03 08:26:41;;;;;;;7.57;5.88;;;;;;;;;;5074291;28;20209;-62
2023/06/03 08:29:08;;;;;;;8.52;5.50;;;;;;;;;;5077642;28;20205;-61
2023/06/03 08:31:36;;;;;;;10.70;5.63;;;;;;;;;;5080778;28;20232;-61
2023/06/03 08:34:03;;;;;;;13.95;6.47;;;;;;;;;;5080762;28;20209;-63
2023/06/03 08:36:32;;;;;;;10.25;6.07;;;;;;;;;;5075680;28;20205;-62
2023/06/03 08:38:59;;;;;;;8.80;5.93;;;;;;;;;;5084968;28;20209;-62
2023/06/03 08:41:30;;;;;;;7.63;6.10;;;;;;;;;;5073427;28;20291;-63
2023/06/03 08:44:01;;;;;;;9.98;6.22;;;;;;;;;;5056227;28;20224;-61
2023/06/03 08:46:40;;;;;;;7.28;6.00;;;;;;;;;;5062835;28;20193;-61
2023/06/03 08:49:11;;;;;;;8.32;5.65;;;;;;;;;;5076867;28;20333;-64
2023/06/03 08:51:39;;;;;;;8.93;6.10;;;;;;;;;;5079348;28;20698;-64
2023/06/03 08:54:11;;;;;;;9.57;6.22;;;;;;;;;;5075471;28;20283;-64
2023/06/03 08:56:45;;;;;;;7.22;5.15;;;;;;;;;;5084707;28;20209;-63
2023/06/03 08:59:15;;;;;;;6.88;5.65;;;;;;;;;;5076993;28;20337;-63
2023/06/03 09:01:43;;;;;;;12.35;6.25;;;;;;;;;;5072608;28;20233;-63
2023/06/03 09:04:12;;;;;;;10.57;5.97;;;;;;;;;;5076909;28;20291;-63
2023/06/03 09:06:44;;;;;;;8.98;5.95;;;;;;;;;;5053522;28;20213;-63
2023/06/03 09:09:12;;;;;;;9.13;5.80;;;;;;;;;;5069587;28;20204;-63
2023/06/03 09:11:40;;;;;;;11.23;6.35;;;;;;;;;;5070030;28;20718;-63
2023/06/03 09:14:08;;;;;;;8.82;6.03;;;;;;;;;;5072784;28;20248;-63
2023/06/03 09:16:36;;;;;;;9.18;5.63;;;;;;;;;;5071940;28;20213;-62
2023/06/03 09:19:04;;;;;;;7.82;5.82;;;;;;;;;;5059712;28;21906;-63
2023/06/03 09:21:32;;;;;;;7.85;5.40;;;;;;;;;;5072858;28;20226;-64
2023/06/03 09:23:59;;;;;;;10.45;6.38;;;;;;;;;;5075600;28;20200;-63
2023/06/03 09:26:28;;;;;;;10.35;6.00;;;;;;;;;;5079938;28;20203;-62
2023/06/03 09:28:55;;;;;;;12.57;5.90;;;;;;;;;;5075110;28;20624;-64
2023/06/03 09:31:23;;;;;;;11.00;6.43;;;;;;;;;;5080810;28;20253;-61
2023/06/03 09:33:50;;;;;;;12.43;6.45;;;;;;;;;;5080457;28;20201;-62
2023/06/03 09:36:17;;;;;;;9.43;5.68;;;;;;;;;;5075876;28;20208;-62
2023/06/03 09:38:46;;;;;;;11.05;6.30;;;;;;;;;;5082252;28;20549;-61
2023/06/03 09:41:20;;;;;;;9.90;6.47;;;;;;;;;;5079267;28;20233;-64
2023/06/03 09:43:57;;;;;;;8.98;6.13;;;;;;;;;;5081559;28;20674;-64
2023/06/03 09:46:26;;;;;;;10.27;5.65;;;;;;;;;;5079752;28;20282;-62
2023/06/03 09:48:55;;;;;;;8.85;5.90;;;;;;;;;;5079460;28;20296;-62
2023/06/03 09:51:39;;;;;;;8.35;5.90;;;;;;;;;;5078958;28;20598;-62
2023/06/03 09:54:14;;;;;;;8.93;5.55;;;;;;;;;;5080606;28;20277;-62
2023/06/03 09:56:42;;;;;;;10.55;6.45;;;;;;;;;;5084995;28;20429;-62
2023/06/03 09:59:13;;;;;;;9.00;6.57;;;;;;;;;;5081844;28;20209;-62
2023/06/03 10:01:41;;;;;;;8.57;5.65;;;;;;;;;;5068936;28;20281;-62
2023/06/03 10:04:09;;;;;;;10.57;5.70;;;;;;;;;;5087859;28;20300;-63
2023/06/03 10:06:38;;;;;;;9.82;5.88;;;;;;;;;;5077703;28;20204;-64
2023/06/03 10:09:22;;;;;;;8.48;5.90;;;;;;;;;;5067142;28;20920;-63
2023/06/03 10:11:50;;;;;;;7.30;5.60;;;;;;;;;;5076474;28;20310;-65
2023/06/03 10:14:25;;;;;;;7.13;5.90;;;;;;;;;;5076332;28;20204;-65
2023/06/03 10:17:09;;;;;;;11.02;7.00;;;;;;;;;;5080114;28;20205;-61
2023/06/03 10:19:37;;;;;;;6.90;5.57;;;;;;;;;;5077037;28;20204;-64
2023/06/03 10:22:05;;;;;;;8.13;5.80;;;;;;;;;;5063855;28;20229;-64
2023/06/03 10:24:42;;;;;;;6.93;5.25;;;;;;;;;;5084791;28;20303;-64
2023/06/03 10:27:10;;;;;;;9.25;5.97;;;;;;;;;;5077833;28;20200;-63
2023/06/03 10:29:38;;;;;;;8.13;6.03;;;;;;;;;;5078309;28;20200;-63
2023/06/03 10:32:06;;;;;;;8.55;5.75;;;;;;;;;;5075490;28;20360;-62
2023/06/03 10:34:39;;;;;;;6.72;5.78;;;;;;;;;;5081406;28;20655;-64
2023/06/03 10:37:07;;;;;;;7.28;5.15;;;;;;;;;;5079680;28;20209;-64
2023/06/03 10:39:34;;;;;;;7.65;4.85;;;;;;;;;;5077522;28;20201;-63
2023/06/03 10:42:03;;;;;;;6.93;5.22;;;;;;;;;;5076037;28;20244;-63
2023/06/03 10:44:33;;;;;;;7.97;5.15;;;;;;;;;;5077627;28;22073;-62
2023/06/03 10:47:10;;;;;;;9.52;5.38;;;;;;;;;;5077566;28;20200;-64
2023/06/03 10:49:42;;;;;;;9.40;5.43;;;;;;;;;;5079309;28;20209;-62
2023/06/03 10:52:22;;;;;;;9.38;5.57;;;;;;;;;;5073651;28;20225;-62
2023/06/03 10:55:09;;;;;;;7.03;5.85;;;;;;;;;;5068296;28;20205;-62
2023/06/03 10:57:43;;;;;;;8.63;5.57;;;;;;;;;;5066135;28;20292;-62
2023/06/03 11:00:11;;;;;;;7.25;5.28;;;;;;;;;;5076934;28;20207;-61
2023/06/03 11:02:57;;;;;;;7.03;5.25;;;;;;;;;;5069330;28;20251;-63
2023/06/03 11:05:24;;;;;;;8.55;5.00;;;;;;;;;;5066908;28;20206;-62
2023/06/03 11:07:53;;;;;;;6.30;5.45;;;;;;;;;;5064359;28;20200;-60
2023/06/03 11:10:36;;;;;;;6.95;5.70;;;;;;;;;;5062200;28;20209;-63
2023/06/03 11:13:05;;;;;;;10.23;5.63;;;;;;;;;;5058810;28;20209;-62
2023/06/03 11:15:50;;;;;;;8.93;5.60;;;;;;;;;;5068792;28;20209;-62
2023/06/03 11:18:18;;;;;;;6.20;5.47;;;;;;;;;;5065721;28;20209;-61
2023/06/03 11:20:45;;;;;;;6.78;5.30;;;;;;;;;;5048974;28;20228;-61
2023/06/03 11:23:33;;;;;;;6.80;5.05;;;;;;;;;;5067114;28;20209;-61
2023/06/03 11:26:20;;;;;;;7.28;5.55;;;;;;;;;;5064056;28;20233;-62
2023/06/03 11:28:50;;;;;;;6.78;4.70;;;;;;;;;;5066314;28;20322;-62
2023/06/03 11:31:20;;;;;;;6.18;4.88;;;;;;;;;;5064586;28;20227;-62
2023/06/03 11:34:07;;;;;;;7.63;4.72;;;;;;;;;;5059149;28;20228;-62
2023/06/03 11:36:47;;;;;;;7.65;4.63;;;;;;;;;;5061816;28;20330;-61
2023/06/03 11:39:15;;;;;;;7.53;5.22;;;;;;;;;;5063625;28;20212;-62
2023/06/03 11:42:01;;;;;;;7.30;5.32;;;;;;;;;;5078987;28;20306;-62
2023/06/03 11:44:29;;;;;;;6.88;5.63;;;;;;;;;;5080439;28;20211;-62
2023/06/03 11:47:00;;;;;;;9.05;5.32;;;;;;;;;;5073319;28;20208;-61
2023/06/03 11:49:28;;;;;;;7.68;5.75;;;;;;;;;;5080431;28;20225;-62
2023/06/03 11:51:59;;;;;;;6.05;4.97;;;;;;;;;;5077560;28;20235;-62
2023/06/03 11:54:27;;;;;;;5.97;5.30;;;;;;;;;;5085757;28;20251;-62
2023/06/03 11:56:55;;;;;;;6.10;5.10;;;;;;;;;;5079070;28;20209;-62
2023/06/03 11:59:24;;;;;;;8.38;5.63;;;;;;;;;;5080802;28;20212;-64
2023/06/03 12:01:55;;;;;;;7.07;5.10;;;;;;;;;;5079285;28;20248;-62
2023/06/03 12:04:23;;;;;;;7.75;5.32;;;;;;;;;;5077824;28;20335;-63
2023/06/03 12:06:50;;;;;;;6.13;4.65;;;;;;;;;;5077474;28;20205;-61
2023/06/03 12:09:18;;;;;;;5.47;4.95;;;;;;;;;;5070677;28;20758;-62
2023/06/03 12:11:45;;;;;;;6.35;5.07;;;;;;;;;;5070941;28;20270;-62
2023/06/03 12:14:26;;;;;;;7.15;5.38;;;;;;;;;;5079332;28;20682;-63
2023/06/03 12:16:55;;;;;;;6.22;5.07;;;;;;;;;;5080041;28;20200;-62
2023/06/03 12:19:22;;;;;;;6.47;5.00;;;;;;;;;;5083782;28;20204;-62
2023/06/03 12:22:08;;;;;;;9.25;5.60;;;;;;;;;;5079766;28;20735;-63
2023/06/03 12:24:35;;;;;;;7.85;5.05;;;;;;;;;;5084520;28;20192;-61
2023/06/03 12:27:21;;;;;;;6.88;5.15;;;;;;;;;;5085069;28;20209;-63
2023/06/03 12:29:53;;;;;;;5.95;5.22;;;;;;;;;;5080527;28;20250;-63
2023/06/03 12:32:21;;;;;;;8.32;5.60;;;;;;;;;;5080338;28;20316;-62
2023/06/03 12:34:50;;;;;;;7.13;5.30;;;;;;;;;;5081272;28;20209;-61
2023/06/03 12:37:26;;;;;;;6.97;4.95;;;;;;;;;;5093018;28;20209;-62
2023/06/03 12:39:56;;;;;;;7.50;5.38;;;;;;;;;;5082173;28;20210;-63
2023/06/03 12:42:43;;;;;;;10.10;5.22;;;;;;;;;;5075031;28;20225;-62
2023/06/03 12:45:11;;;;;;;6.90;5.25;;;;;;;;;;5079697;28;20202;-63
2023/06/03 12:47:46;;;;;;;9.30;5.43;;;;;;;;;;5080755;28;20197;-63
2023/06/03 12:50:15;;;;;;;7.68;4.85;;;;;;;;;;5083058;28;20658;-63
2023/06/03 12:52:43;;;;;;;6.97;5.07;;;;;;;;;;5072323;28;20204;-63
2023/06/03 12:55:11;;;;;;;7.97;5.03;;;;;;;;;;5078531;28;20208;-61
2023/06/03 12:57:40;;;;;;;8.70;5.45;;;;;;;;;;5073834;28;20221;-62
2023/06/03 13:00:09;;;;;;;6.65;5.65;;;;;;;;;;5075687;28;20220;-62
2023/06/03 13:02:38;;;;;;;5.60;4.80;;;;;;;;;;5076350;28;20228;-62
2023/06/03 13:05:08;;;;;;;6.70;5.32;;;;;;;;;;5079838;28;20220;-62
2023/06/03 13:07:36;;;;;;;7.32;5.72;;;;;;;;;;5082512;28;20630;-63
2023/06/03 13:10:04;;;;;;;7.10;5.20;;;;;;;;;;5082667;28;20193;-61
2023/06/03 13:12:32;;;;;;;10.95;5.35;;;;;;;;;;5084914;28;20224;-62
2023/06/03 13:15:00;;;;;;;9.18;5.20;;;;;;;;;;5087411;28;20201;-62
2023/06/03 13:17:27;;;;;;;7.13;5.13;;;;;;;;;;5089040;28;20208;-62
2023/06/03 13:19:55;;;;;;;5.90;4.80;;;;;;;;;;5082031;28;20208;-61
2023/06/03 13:22:26;;;;;;;5.70;4.55;;;;;;;;;;5083601;28;20225;-63
2023/06/03 13:24:54;;;;;;;5.60;4.97;;;;;;;;;;5084287;28;20237;-61
2023/06/03 13:27:21;;;;;;;5.93;5.10;;;;;;;;;;5085607;28;20201;-62
2023/06/03 13:29:51;;;;;;;6.57;5.00;;;;;;;;;;5080953;28;20197;-61
2023/06/03 13:32:21;;;;;;;6.47;4.88;;;;;;;;;;5082437;28;20229;-62
2023/06/03 13:34:50;;;;;;;5.68;5.10;;;;;;;;;;5082818;28;20209;-62
2023/06/03 13:37:18;;;;;;;9.27;5.20;;;;;;;;;;5080641;28;20200;-61
2023/06/03 13:39:46;;;;;;;6.60;5.18;;;;;;;;;;5065272;28;20265;-61
2023/06/03 13:42:13;;;;;;;5.68;5.10;;;;;;;;;;5051456;28;20242;-60
2023/06/03 13:44:40;;;;;;;6.00;4.80;;;;;;;;;;5068598;28;20230;-62
2023/06/03 13:47:08;;;;;;;6.68;5.10;;;;;;;;;;5047064;28;20206;-61
2023/06/03 13:49:36;;;;;;;7.47;4.85;;;;;;;;;;5070865;28;20200;-61
2023/06/03 13:52:04;;;;;;;6.63;5.00;;;;;;;;;;5071130;28;20246;-63
2023/06/03 13:54:31;;;;;;;5.20;4.65;;;;;;;;;;5068969;28;20305;-62
2023/06/03 13:57:01;;;;;;;8.77;5.07;;;;;;;;;;5071252;28;20228;-60
2023/06/03 13:59:28;;;;;;;9.13;4.93;;;;;;;;;;5077102;28;20263;-61
2023/06/03 14:01:56;;;;;;;6.97;4.72;;;;;;;;;;5059705;28;20609;-61
2023/06/03 14:04:23;;;;;;;5.30;4.80;;;;;;;;;;5056009;28;20204;-62
2023/06/03 14:06:53;;;;;;;7.63;4.93;;;;;;;;;;5067921;28;20204;-61
2023/06/03 14:09:20;;;;;;;5.40;4.75;;;;;;;;;;5071656;28;20291;-61
2023/06/03 14:11:49;;;;;;;5.53;4.40;;;;;;;;;;5053382;28;20294;-60
2023/06/03 14:14:17;;;;;;;8.73;5.00;;;;;;;;;;5063801;28;20252;-61
2023/06/03 14:16:45;;;;;;;6.28;5.00;;;;;;;;;;5076112;28;20197;-61
2023/06/03 14:19:13;;;;;;;5.30;4.72;;;;;;;;;;5068677;28;20205;-60
2023/06/03 14:21:40;;;;;;;5.78;4.82;;;;;;;;;;5074179;28;20231;-61
2023/06/03 14:24:08;;;;;;;7.93;4.95;;;;;;;;;;5068841;28;20675;-60
2023/06/03 14:26:35;;;;;;;5.80;5.20;;;;;;;;;;5069921;28;20200;-61
2023/06/03 14:29:06;;;;;;;6.68;4.93;;;;;;;;;;5071230;28;20656;-60
2023/06/03 14:31:34;;;;;;;5.55;4.53;;;;;;;;;;5073727;28;20220;-61
2023/06/03 14:34:01;;;;;;;5.72;4.85;;;;;;;;;;5064165;28;20205;-61
2023/06/03 14:36:29;;;;;;;5.60;4.82;;;;;;;;;;5067050;28;20246;-60
2023/06/03 14:38:56;;;;;;;6.10;4.45;;;;;;;;;;5068217;28;20209;-61
2023/06/03 14:41:27;;;;;;;6.50;4.97;;;;;;;;;;5074080;28;20231;-61
2023/06/03 14:43:55;;;;;;;5.53;4.78;;;;;;;;;;5077280;28;20193;-60
2023/06/03 14:46:22;;;;;;;6.45;4.63;;;;;;;;;;5053201;28;20216;-61
2023/06/03 14:48:50;;;;;;;5.82;4.75;;;;;;;;;;5054749;28;20214;-61
2023/06/03 14:51:17;;;;;;;9.80;5.22;;;;;;;;;;5066002;28;21697;-59
2023/06/03 14:53:45;;;;;;;5.07;4.60;;;;;;;;;;5066094;28;20205;-63